Lude, Minnesota
Current Conditions -  °F | °C
As of 11:31 AM on Thursday 30 Oct 2014 (Local Time) from KBDE Reporting Station
Overcast Overcast  
Wind Chill: 29°   Ceiling: 3000
Heat Index: 37°   Visibility: 10mi
Dew Point: 32°   Wind: 13mph
Humidity: 82%   Direction: 330°NNW
Pressure: 30.16"   Gusts: NA
Location:  48.7484°N, 94.9438°W
Report Text: KBDE 301631Z AUTO 33011KT 10SM FEW024 BKN030 OVC035 03/00 A3016 RMK AO2 RAE08 P0000 T00280000 TSNO
Loading
Personal Weather Stations






























Interactive Weather Map
Tropical Storm Tracking
New forecast layout! Learn more

10-Day Weather Forecast

Advertisements
Track Severe Weather on mobile